Time;durP1;ratioP1;P1;durP2;ratioP2;P2;SDS_P1;SDS_P2;PMS_P1;PMS_P2;Temp;Humidity;BMP_temperature;BMP_pressure;BME280_temperature;BME280_humidity;BME280_pressure;Samples;Min_cycle;Max_cycle;Signal;HPM_P1;HPM_P2
2022/10/04 00:08:41;;;;;;;2.08;0.98;;;;;;;17.50;100.00;102005.09;21207530;27;20062;-74
2022/10/04 00:18:44;;;;;;;0.93;0.50;;;;;;;17.59;100.00;102008.94;21213755;27;20270;-75
2022/10/04 00:28:48;;;;;;;0.95;0.70;;;;;;;17.58;100.00;101994.63;21208768;27;20061;-75
2022/10/04 00:39:08;;;;;;;1.05;0.50;;;;;;;17.59;100.00;101987.41;21145003;27;20049;-75
2022/10/04 00:49:11;;;;;;;1.25;0.50;;;;;;;17.58;100.00;101988.38;21225663;27;20078;-74
2022/10/04 00:59:24;;;;;;;0.55;0.40;;;;;;;17.58;100.00;101977.59;21222305;27;20051;-74
2022/10/04 01:09:26;;;;;;;0.80;0.50;;;;;;;17.57;100.00;101968.69;21223903;27;20059;-74
2022/10/04 01:19:31;;;;;;;0.70;0.43;;;;;;;17.57;100.00;101952.53;21218945;27;20491;-74
2022/10/04 01:29:32;;;;;;;1.27;0.40;;;;;;;17.56;100.00;101936.47;21222888;27;20075;-74
2022/10/04 01:39:34;;;;;;;0.60;0.45;;;;;;;17.56;100.00;101934.66;21168367;27;20096;-74
2022/10/04 01:49:38;;;;;;;1.08;0.50;;;;;;;17.56;100.00;101915.81;21217985;27;20047;-74
2022/10/04 01:59:51;;;;;;;1.40;0.43;;;;;;;17.56;100.00;101904.16;21223596;27;20043;-75
2022/10/04 02:09:59;;;;;;;0.88;0.40;;;;;;;17.45;100.00;101881.56;21218539;27;20043;-74
2022/10/04 02:20:01;;;;;;;1.00;0.63;;;;;;;17.55;100.00;101897.94;21205228;27;20339;-74
2022/10/04 02:30:09;;;;;;;0.70;0.40;;;;;;;17.38;100.00;101840.75;21212753;27;20495;-75
2022/10/04 02:40:13;;;;;;;1.48;0.52;;;;;;;17.54;100.00;101859.34;21142553;27;20051;-74
2022/10/04 02:50:29;;;;;;;0.55;0.40;;;;;;;17.52;100.00;101845.16;21212002;27;20491;-75
2022/10/04 03:00:31;;;;;;;1.27;0.50;;;;;;;17.28;100.00;101795.78;21210043;27;20055;-75
2022/10/04 03:10:34;;;;;;;0.73;0.40;;;;;;;17.53;100.00;101829.88;21216782;27;20112;-74
2022/10/04 03:20:37;;;;;;;0.75;0.55;;;;;;;17.52;100.00;101820.06;21211590;27;20103;-74
2022/10/04 03:30:42;;;;;;;0.80;0.50;;;;;;;17.44;100.00;101793.69;21211520;27;20448;-74
2022/10/04 03:40:52;;;;;;;0.32;0.30;;;;;;;17.29;100.00;101765.22;21116334;27;20091;-74
2022/10/04 03:50:54;;;;;;;0.30;0.30;;;;;;;17.15;100.00;101736.59;21208618;27;20046;-74
2022/10/04 04:01:30;;;;;;;1.20;0.60;;;;;;;17.50;100.00;101809.41;21208602;27;20047;-74
2022/10/04 04:11:32;;;;;;;0.70;0.40;;;;;;;17.50;100.00;101806.72;21209130;27;20043;-74
2022/10/04 04:21:33;;;;;;;0.90;0.65;;;;;;;17.42;100.00;101782.19;21217579;27;20127;-74
2022/10/04 04:32:19;;;;;;;0.80;0.50;;;;;;;17.49;100.00;101794.22;20907150;27;20050;-74
2022/10/04 04:42:28;;;;;;;1.15;0.68;;;;;;;17.13;100.00;101728.63;20801817;27;20506;-74
2022/10/04 04:52:30;;;;;;;0.40;0.40;;;;;;;17.49;100.00;101779.91;20865442;27;20064;-74
2022/10/04 05:02:36;;;;;;;0.60;0.40;;;;;;;17.48;100.00;101779.03;20821423;27;20053;-74
2022/10/04 05:12:38;;;;;;;0.80;0.38;;;;;;;17.48;100.00;101773.66;20822219;27;20458;-74
2022/10/04 05:22:44;;;;;;;0.52;0.30;;;;;;;17.33;100.00;101747.88;20717552;27;20061;-74
2022/10/04 05:33:07;;;;;;;0.90;0.50;;;;;;;17.47;100.00;101771.94;20842162;27;20455;-74
2022/10/04 05:43:37;;;;;;;0.57;0.35;;;;;;;17.38;100.00;101768.06;20728462;28;20068;-74
2022/10/04 05:53:40;;;;;;;0.95;0.50;;;;;;;17.46;100.00;101767.53;20814537;27;20489;-74
2022/10/04 06:04:01;;;;;;;0.60;0.60;;;;;;;17.45;100.00;101763.13;20765385;27;20132;-74
2022/10/04 06:14:16;;;;;;;0.28;0.28;;;;;;;17.40;100.00;101763.44;20795819;27;20164;-74
2022/10/04 06:24:25;;;;;;;1.65;0.40;;;;;;;17.20;100.00;101732.59;20726917;27;20053;-75
2022/10/04 06:34:44;;;;;;;0.43;0.30;;;;;;;17.45;100.00;101767.63;20744023;27;20045;-76
2022/10/04 06:45:21;;;;;;;0.50;0.38;;;;;;;17.45;100.00;101752.34;20709744;27;20168;-75
2022/10/04 06:55:38;;;;;;;0.65;0.40;;;;;;;17.38;100.00;101743.00;20712391;27;20049;-76
2022/10/04 07:06:00;;;;;;;1.10;0.40;;;;;;;17.32;100.00;101727.31;20713143;27;20051;-75
2022/10/04 07:16:08;;;;;;;0.50;0.45;;;;;;;17.46;100.00;101755.91;20700889;27;20430;-74
2022/10/04 07:26:38;;;;;;;2.17;0.40;;;;;;;17.48;100.00;101740.50;20695241;27;20057;-74
2022/10/04 07:36:47;;;;;;;1.38;0.70;;;;;;;17.49;100.00;101726.06;20729463;27;20153;-74
2022/10/04 07:47:13;;;;;;;2.05;0.75;;;;;;;17.57;100.00;101733.56;20737775;27;20069;-74
2022/10/04 07:57:44;;;;;;;3.75;0.90;;;;;;;17.59;100.00;101745.06;20739066;27;20049;-74
2022/10/04 08:07:46;;;;;;;2.10;0.80;;;;;;;17.62;100.00;101736.75;20741877;27;20596;-73
2022/10/04 08:18:09;;;;;;;1.40;0.52;;;;;;;17.68;100.00;101742.56;20742889;27;20058;-73
2022/10/04 08:39:05;;;;;;;3.03;0.60;;;;;;;17.69;100.00;101727.28;20758861;27;20057;-74
2022/10/04 08:49:29;;;;;;;1.97;1.23;;;;;;;17.72;100.00;101727.06;20768772;27;20068;-74
2022/10/04 08:59:58;;;;;;;4.28;1.50;;;;;;;17.85;100.00;101720.72;20719240;27;20049;-74
2022/10/04 09:10:21;;;;;;;4.57;1.20;;;;;;;17.95;100.00;101722.63;20727712;27;20098;-74
2022/10/04 09:20:50;;;;;;;4.15;1.40;;;;;;;17.98;100.00;101716.13;20728000;27;20152;-74
2022/10/04 09:31:13;;;;;;;3.92;1.60;;;;;;;17.93;100.00;101723.69;20727218;27;20050;-74
2022/10/04 09:41:46;;;;;;;3.42;1.40;;;;;;;17.89;100.00;101722.22;20706017;27;20535;-74
2022/10/04 09:52:00;;;;;;;5.53;1.60;;;;;;;17.87;100.00;101713.41;20710532;27;20137;-74
2022/10/04 10:02:08;;;;;;;2.20;1.23;;;;;;;17.85;100.00;101712.66;20736096;27;20053;-74
2022/10/04 10:23:25;;;;;;;3.65;1.75;;;;;;;17.80;100.00;101697.69;20736361;27;20490;-74
2022/10/04 10:34:03;;;;;;;3.78;1.33;;;;;;;17.81;100.00;101685.94;20734876;27;21107;-75
2022/10/04 10:44:08;;;;;;;1.73;0.98;;;;;;;17.79;100.00;101668.19;20736304;27;20056;-74
2022/10/04 10:54:48;;;;;;;2.00;1.00;;;;;;;17.62;100.00;101648.78;20735115;27;20057;-75
2022/10/04 11:05:14;;;;;;;3.20;1.08;;;;;;;17.80;100.00;101675.28;20776685;27;20432;-74
2022/10/04 11:15:31;;;;;;;2.85;1.00;;;;;;;17.79;100.00;101663.66;20744147;27;20582;-74
2022/10/04 11:25:55;;;;;;;0.88;0.70;;;;;;;17.80;100.00;101648.34;20723369;27;20049;-74
2022/10/04 11:36:03;;;;;;;2.03;0.98;;;;;;;17.78;100.00;101643.09;20711169;27;20053;-74
2022/10/04 11:46:12;;;;;;;1.83;1.10;;;;;;;17.71;100.00;101612.22;20731409;27;20053;-74
2022/10/04 11:56:20;;;;;;;2.10;1.00;;;;;;;17.80;100.00;101622.28;20730162;28;20056;-74
2022/10/04 12:06:46;;;;;;;1.45;0.70;;;;;;;17.80;100.00;101611.50;20727517;27;20057;-73
2022/10/04 12:17:07;;;;;;;1.33;0.75;;;;;;;17.79;100.00;101596.34;20730091;27;20128;-74
2022/10/04 12:39:02;;;;;;;0.90;0.80;;;;;;;17.80;100.00;101579.19;20759129;27;20120;-75
2022/10/04 12:49:22;;;;;;;1.00;0.80;;;;;;;17.80;100.00;101551.38;20717837;27;20057;-75
2022/10/04 12:59:44;;;;;;;1.67;0.90;;;;;;;17.81;100.00;101553.97;20712461;27;20064;-74
2022/10/04 13:09:57;;;;;;;1.33;1.02;;;;;;;17.87;100.00;101551.78;20717026;27;20054;-74
2022/10/04 13:20:25;;;;;;;3.90;1.25;;;;;;;17.87;100.00;101541.00;20711176;27;20050;-75
2022/10/04 13:30:48;;;;;;;5.38;1.30;;;;;;;17.87;100.00;101533.75;20703698;27;20057;-74
2022/10/04 13:40:58;;;;;;;1.90;0.95;;;;;;;17.87;100.00;101524.84;20708899;27;20049;-75
2022/10/04 13:51:27;;;;;;;1.23;0.88;;;;;;;17.86;100.00;101512.34;20709122;27;20060;-75
2022/10/04 14:02:00;;;;;;;1.85;0.90;;;;;;;17.85;100.00;101505.25;20712680;27;20054;-75
2022/10/04 14:12:14;;;;;;;1.25;0.77;;;;;;;17.84;100.00;101488.22;20703752;27;20082;-75
2022/10/04 14:22:31;;;;;;;1.57;0.87;;;;;;;17.83;100.00;101476.59;20705663;27;20050;-75
2022/10/04 14:32:48;;;;;;;0.90;0.77;;;;;;;17.74;100.00;101481.84;20698509;27;20049;-74
2022/10/04 14:42:57;;;;;;;1.23;0.77;;;;;;;17.83;100.00;101499.97;20713433;27;20053;-75
2022/10/04 14:53:22;;;;;;;2.10;1.05;;;;;;;17.57;100.00;101456.25;20688848;28;20049;-75
2022/10/04 15:03:37;;;;;;;3.50;1.30;;;;;;;17.82;100.00;101469.50;20688769;27;20050;-76
2022/10/04 15:13:56;;;;;;;;;;;;;;;17.82;100.00;101498.25;20700785;27;20054;-75
2022/10/04 15:24:09;;;;;;;2.13;1.05;;;;;;;17.74;100.00;101492.63;20708365;27;19921;-74
2022/10/04 15:34:34;;;;;;;1.42;0.80;;;;;;;17.80;100.00;101492.13;20691901;27;20054;-74
2022/10/04 15:45:15;;;;;;;2.23;0.90;;;;;;;17.79;100.00;101482.34;20709087;27;20113;-79
2022/10/04 15:55:22;;;;;;;0.90;0.90;;;;;;;17.80;100.00;101481.38;20709259;27;20525;-74
2022/10/04 16:05:43;;;;;;;1.35;0.80;;;;;;;17.78;100.00;101459.97;20747328;27;20795;-74
2022/10/04 16:15:48;;;;;;;1.00;0.90;;;;;;;17.62;100.00;101435.19;20760802;27;20051;-73
2022/10/04 16:25:52;;;;;;;2.23;1.00;;;;;;;17.78;100.00;101462.66;20767418;27;20053;-75
2022/10/04 16:36:08;;;;;;;3.00;1.00;;;;;;;17.72;100.00;101457.75;20761082;27;20049;-73
2022/10/04 16:46:29;;;;;;;1.20;1.00;;;;;;;17.78;100.00;101461.78;20776880;27;20053;-74
2022/10/04 16:56:52;;;;;;;2.85;1.20;;;;;;;17.77;100.00;101466.31;20775726;27;20505;-74
2022/10/04 17:06:58;;;;;;;1.98;1.33;;;;;;;17.77;100.00;101477.09;20763835;27;20170;-74
2022/10/04 17:17:13;;;;;;;1.50;0.90;;;;;;;17.76;100.00;101470.00;20754363;27;20558;-74
2022/10/04 17:27:44;;;;;;;2.42;1.27;;;;;;;17.75;100.00;101468.28;20771915;27;20050;-74
2022/10/04 17:37:59;;;;;;;2.45;1.38;;;;;;;17.75;100.00;101462.91;20879540;27;20049;-74
2022/10/04 17:58:39;;;;;;;1.77;1.50;;;;;;;17.75;100.00;101454.81;20742817;27;20065;-74
2022/10/04 18:08:49;;;;;;;1.50;1.00;;;;;;;17.74;100.00;101465.69;20707567;28;20103;-74
2022/10/04 18:18:51;;;;;;;1.70;1.10;;;;;;;17.73;100.00;101470.25;21066298;27;20451;-74
2022/10/04 18:28:53;;;;;;;2.03;0.90;;;;;;;17.73;100.00;101469.38;21098274;27;20099;-74
2022/10/04 18:39:21;;;;;;;1.80;1.20;;;;;;;17.74;100.00;101446.84;21104895;27;20067;-74
2022/10/04 18:49:26;;;;;;;1.52;1.10;;;;;;;17.67;100.00;101427.63;20915310;27;20057;-74
2022/10/04 19:10:47;;;;;;;1.23;0.98;;;;;;;17.70;100.00;101443.56;20823407;27;20049;-74
2022/10/04 19:20:56;;;;;;;1.80;1.15;;;;;;;17.72;100.00;101433.53;20864985;27;20152;-74
2022/10/04 19:31:11;;;;;;;1.92;1.20;;;;;;;17.71;100.00;101417.47;20773778;27;20498;-74
2022/10/04 19:41:31;;;;;;;;;;;;;;;17.71;100.00;101395.94;20754337;27;20053;-74
2022/10/04 19:51:38;;;;;;;1.45;0.85;;;;;;;17.69;100.00;101377.22;20783181;27;20011;-74
2022/10/04 20:01:40;;;;;;;1.55;0.90;;;;;;;17.15;100.00;101303.44;20700174;28;20073;-74
2022/10/04 20:11:50;;;;;;;1.33;0.90;;;;;;;17.69;100.00;101415.75;20871853;27;20514;-74
2022/10/04 20:21:52;;;;;;;1.25;0.90;;;;;;;17.56;100.00;101400.69;20839174;27;20056;-74
2022/10/04 20:31:53;;;;;;;2.25;1.20;;;;;;;17.70;100.00;101384.31;20812605;27;20053;-74
2022/10/04 20:42:18;;;;;;;1.08;0.90;;;;;;;17.69;100.00;101380.75;20893066;27;20055;-74
2022/10/04 20:52:22;;;;;;;1.00;0.90;;;;;;;17.59;100.00;101365.44;20851234;27;20057;-74
2022/10/04 21:02:27;;;;;;;0.68;0.68;;;;;;;17.68;100.00;101380.88;20893223;27;20065;-74
2022/10/04 21:12:31;;;;;;;1.50;0.87;;;;;;;17.68;100.00;101389.81;20941368;27;20041;-74
2022/10/04 21:22:33;;;;;;;0.73;0.70;;;;;;;17.34;100.00;101352.13;20887846;27;20136;-74
2022/10/04 21:32:35;;;;;;;1.10;0.90;;;;;;;17.68;100.00;101394.34;20804519;27;20497;-74
2022/10/04 21:42:37;;;;;;;1.88;1.10;;;;;;;17.67;100.00;101373.75;20897686;27;20132;-74
2022/10/04 21:52:38;;;;;;;1.50;1.05;;;;;;;17.59;100.00;101355.56;20927991;27;20049;-74
2022/10/04 22:02:40;;;;;;;1.75;1.27;;;;;;;17.67;100.00;101373.75;20860482;27;20049;-74
2022/10/04 22:12:41;;;;;;;1.55;0.95;;;;;;;17.33;100.00;101325.34;20949747;27;20065;-74
2022/10/04 22:22:43;;;;;;;1.13;0.90;;;;;;;17.62;100.00;101365.19;20884226;27;20058;-74
2022/10/04 22:32:44;;;;;;;1.17;0.90;;;;;;;17.39;100.00;101322.16;20857871;27;20056;-74
2022/10/04 22:42:50;;;;;;;1.00;0.80;;;;;;;17.67;100.00;101363.00;20872334;27;20084;-74
2022/10/04 22:52:51;;;;;;;1.17;0.90;;;;;;;17.33;100.00;101306.50;20877333;27;20613;-74
2022/10/04 23:02:54;;;;;;;1.00;0.90;;;;;;;17.58;100.00;101345.75;20902125;27;20080;-74
2022/10/04 23:12:56;;;;;;;1.40;0.90;;;;;;;17.66;100.00;101331.66;20969308;27;20050;-74
2022/10/04 23:22:58;;;;;;;1.98;1.00;;;;;;;17.65;100.00;101314.66;20867898;27;20097;-74
2022/10/04 23:33:00;;;;;;;1.23;0.82;;;;;;;17.47;100.00;101308.94;20844204;27;20045;-74
2022/10/04 23:43:03;;;;;;;0.95;0.80;;;;;;;17.66;100.00;101331.66;20900620;27;20434;-74
2022/10/04 23:53:10;;;;;;;1.15;0.98;;;;;;;17.30;100.00;101258.31;20817128;27;20132;-74
